Time;durP1;ratioP1;P1;durP2;ratioP2;P2;SDS_P1;SDS_P2;PMS_P1;PMS_P2;Temp;Humidity;BMP_temperature;BMP_pressure;BME280_temperature;BME280_humidity;BME280_pressure;Samples;Min_cycle;Max_cycle;Signal;HPM_P1;HPM_P2
2023/04/02 00:01:35;;;;;;;1.30;1.10;;;8.80;74.10;;;;;;6289164;28;20171;-62
2023/04/02 00:04:36;;;;;;;1.40;1.00;;;8.80;74.00;;;;;;6265769;28;20202;-62
2023/04/02 00:07:39;;;;;;;1.37;1.10;;;8.60;74.10;;;;;;6257269;28;20190;-62
2023/04/02 00:10:48;;;;;;;2.80;1.40;;;8.60;74.40;;;;;;6285143;28;20189;-62
2023/04/02 00:13:51;;;;;;;1.53;1.10;;;8.60;74.30;;;;;;6277199;28;20186;-62
2023/04/02 00:16:54;;;;;;;1.53;1.10;;;8.60;74.60;;;;;;6274674;28;20213;-62
2023/04/02 00:20:05;;;;;;;1.37;1.10;;;8.60;74.70;;;;;;6264976;28;20187;-62
2023/04/02 00:23:09;;;;;;;1.70;1.13;;;8.60;74.80;;;;;;6271290;28;20186;-62
2023/04/02 00:26:39;;;;;;;1.13;0.80;;;8.40;75.30;;;;;;6248933;28;20193;-63
2023/04/02 00:29:48;;;;;;;2.17;0.90;;;8.50;75.10;;;;;;6268134;28;20190;-62
2023/04/02 00:32:50;;;;;;;2.00;1.20;;;8.50;75.30;;;;;;6265463;28;20234;-62
2023/04/02 00:35:52;;;;;;;1.07;0.97;;;8.40;75.20;;;;;;6272866;28;20214;-63
2023/04/02 00:38:56;;;;;;;1.60;1.17;;;8.40;74.70;;;;;;6245656;28;20178;-63
2023/04/02 00:42:04;;;;;;;2.40;1.23;;;8.20;75.50;;;;;;6272757;28;20189;-61
2023/04/02 00:45:17;;;;;;;0.87;0.83;;;8.20;75.30;;;;;;6269911;28;20186;-62
2023/04/02 00:48:30;;;;;;;1.83;1.00;;;8.10;75.70;;;;;;6289129;28;20202;-62
2023/04/02 00:52:12;;;;;;;1.60;1.03;;;8.20;75.50;;;;;;6272344;28;20205;-62
2023/04/02 00:55:45;;;;;;;2.03;1.00;;;8.20;76.00;;;;;;6260968;28;20186;-63
2023/04/02 00:58:51;;;;;;;2.33;1.30;;;8.20;75.60;;;;;;6224954;28;20285;-62
2023/04/02 01:02:18;;;;;;;2.10;1.20;;;8.20;75.20;;;;;;6276068;28;20178;-62
2023/04/02 01:05:20;;;;;;;3.33;1.40;;;8.20;75.20;;;;;;6257591;28;20194;-62
2023/04/02 01:09:17;;;;;;;2.97;1.30;;;8.20;75.00;;;;;;6290045;28;20201;-62
2023/04/02 01:12:20;;;;;;;1.40;1.10;;;8.30;74.70;;;;;;6223424;28;20179;-62
2023/04/02 01:15:29;;;;;;;2.07;0.87;;;8.20;74.80;;;;;;6222431;28;20210;-62
2023/04/02 01:18:45;;;;;;;0.93;0.83;;;8.20;75.00;;;;;;6286283;28;20216;-62
2023/04/02 01:22:07;;;;;;;2.90;1.20;;;8.20;74.70;;;;;;6292239;28;20224;-62
2023/04/02 01:25:16;;;;;;;1.83;1.40;;;8.10;75.10;;;;;;6286418;28;20214;-62
2023/04/02 01:28:19;;;;;;;1.73;0.97;;;8.10;75.40;;;;;;6276136;28;20183;-62
2023/04/02 01:31:21;;;;;;;1.97;0.90;;;8.10;75.10;;;;;;6275322;28;20178;-62
2023/04/02 01:34:25;;;;;;;1.67;1.20;;;8.10;75.00;;;;;;6239464;28;20178;-62
2023/04/02 01:37:55;;;;;;;1.73;1.40;;;8.10;74.60;;;;;;6275696;28;20202;-62
2023/04/02 01:41:01;;;;;;;1.90;1.20;;;8.10;75.00;;;;;;6272165;28;20186;-62
2023/04/02 01:44:11;;;;;;;1.70;1.23;;;8.10;75.30;;;;;;6276687;28;20214;-62
2023/04/02 01:47:14;;;;;;;2.17;1.27;;;8.00;75.50;;;;;;6275634;28;20182;-62
2023/04/02 01:50:18;;;;;;;1.60;1.20;;;8.00;75.50;;;;;;6269254;28;20178;-63
2023/04/02 01:53:21;;;;;;;0.90;0.90;;;8.10;75.40;;;;;;6292133;28;20190;-62
2023/04/02 01:56:22;;;;;;;0.97;0.83;;;8.00;75.40;;;;;;6269569;28;20201;-62
2023/04/02 01:59:23;;;;;;;2.33;1.10;;;8.00;74.90;;;;;;6275650;28;20241;-62
2023/04/02 02:02:24;;;;;;;1.30;1.20;;;8.00;74.90;;;;;;6240701;28;20209;-62
2023/04/02 02:05:25;;;;;;;1.60;1.20;;;8.00;75.10;;;;;;6258314;28;20264;-62
2023/04/02 02:08:46;;;;;;;1.13;1.03;;;7.90;75.30;;;;;;6259117;28;20192;-62
2023/04/02 02:11:47;;;;;;;1.27;1.17;;;;;;;;;;6274925;28;20213;-63
2023/04/02 02:14:49;;;;;;;1.10;0.90;;;;;;;;;;6259209;28;20198;-63
2023/04/02 02:17:54;;;;;;;1.03;1.00;;;;;;;;;;6292391;28;20217;-63
2023/04/02 02:20:57;;;;;;;2.33;1.40;;;;;;;;;;6286646;28;20197;-63
2023/04/02 02:23:59;;;;;;;1.77;1.20;;;;;;;;;;6274253;28;20183;-63
2023/04/02 02:27:03;;;;;;;1.13;1.03;;;;;;;;;;6248212;28;20193;-62
2023/04/02 02:30:07;;;;;;;1.67;1.00;;;;;;;;;;6267982;28;20213;-62
2023/04/02 02:33:24;;;;;;;1.40;1.00;;;7.80;75.40;;;;;;6291188;28;20241;-62
2023/04/02 02:36:32;;;;;;;1.37;1.00;;;7.40;76.00;;;;;;6273928;28;20198;-62
2023/04/02 02:39:43;;;;;;;1.00;0.90;;;;;;;;;;6272110;28;20236;-63
2023/04/02 02:42:50;;;;;;;1.70;0.93;;;;;;;;;;6290756;28;20278;-61
2023/04/02 02:45:52;;;;;;;1.80;1.37;;;;;;;;;;6291060;28;20186;-62
2023/04/02 02:48:54;;;;;;;1.13;1.00;;;;;;;;;;6274502;28;20192;-63
2023/04/02 02:52:08;;;;;;;2.67;1.40;;;;;;;;;;6272949;28;20215;-63
2023/04/02 02:55:11;;;;;;;1.57;1.00;;;;;;;;;;6274173;28;20218;-63
2023/04/02 02:58:17;;;;;;;1.60;1.23;;;;;;;;;;6274205;28;20212;-63
2023/04/02 03:01:19;;;;;;;3.27;1.03;;;;;;;;;;6274380;28;20274;-63
2023/04/02 03:04:22;;;;;;;0.97;0.87;;;7.30;76.40;;;;;;6290604;28;20206;-61
2023/04/02 03:07:25;;;;;;;3.97;0.87;;;6.80;77.00;;;;;;6290066;28;20190;-61
2023/04/02 03:10:52;;;;;;;1.10;1.00;;;6.80;76.70;;;;;;6274441;28;20201;-63
2023/04/02 03:14:01;;;;;;;0.93;0.80;;;6.70;77.00;;;;;;6274373;28;20277;-61
2023/04/02 03:17:22;;;;;;;1.10;1.00;;;;;;;;;;6272803;28;20221;-62
2023/04/02 03:20:23;;;;;;;1.07;0.87;;;;;;;;;;6273351;28;20329;-62
2023/04/02 03:23:27;;;;;;;0.93;0.93;;;;;;;;;;6281953;28;20185;-62
2023/04/02 03:26:40;;;;;;;0.87;0.83;;;;;;;;;;6289376;28;20190;-63
2023/04/02 03:29:43;;;;;;;2.90;1.10;;;;;;;;;;6281396;28;20200;-62
2023/04/02 03:32:46;;;;;;;1.50;0.90;;;;;;;;;;6266590;28;20248;-62
2023/04/02 03:36:08;;;;;;;1.37;1.27;;;;;;;;;;6256088;28;20218;-62
2023/04/02 03:39:36;;;;;;;1.27;1.13;;;6.70;76.90;;;;;;6252898;28;20198;-63
2023/04/02 03:43:03;;;;;;;0.80;0.80;;;6.40;78.00;;;;;;6260967;28;20206;-62
2023/04/02 03:46:28;;;;;;;3.47;1.20;;;6.40;77.70;;;;;;6295891;28;20198;-62
2023/04/02 03:49:46;;;;;;;0.80;0.67;;;6.40;78.30;;;;;;6264565;28;20186;-62
2023/04/02 03:52:47;;;;;;;1.37;1.20;;;6.30;78.30;;;;;;6269812;28;20199;-62
2023/04/02 03:55:49;;;;;;;1.43;0.80;;;6.30;78.30;;;;;;6272654;28;20240;-62
2023/04/02 03:59:00;;;;;;;0.83;0.83;;;6.30;78.20;;;;;;6255831;28;20201;-62
2023/04/02 04:02:25;;;;;;;1.00;0.80;;;6.30;78.60;;;;;;6272025;28;20215;-62
2023/04/02 04:05:35;;;;;;;1.10;1.00;;;6.20;78.80;;;;;;6264241;28;20229;-62
2023/04/02 04:08:49;;;;;;;1.20;0.90;;;6.30;78.70;;;;;;6288017;28;20182;-62
2023/04/02 04:12:14;;;;;;;3.27;1.10;;;6.20;78.90;;;;;;6272052;28;20186;-62
2023/04/02 04:15:37;;;;;;;0.67;0.67;;;6.20;79.20;;;;;;6287719;28;20185;-62
2023/04/02 04:18:56;;;;;;;3.13;1.00;;;6.20;79.00;;;;;;6272482;28;20193;-62
2023/04/02 04:22:30;;;;;;;1.07;0.87;;;6.20;78.80;;;;;;6283034;28;20194;-62
2023/04/02 04:25:35;;;;;;;1.10;1.00;;;6.20;79.00;;;;;;6297708;28;20190;-62
2023/04/02 04:28:57;;;;;;;2.57;0.97;;;6.20;79.30;;;;;;6268353;28;20216;-62
2023/04/02 04:32:32;;;;;;;2.60;1.07;;;6.30;78.70;;;;;;6287041;28;20242;-63
2023/04/02 04:35:37;;;;;;;1.07;0.90;;;6.30;78.90;;;;;;6272318;28;20212;-61
2023/04/02 04:38:43;;;;;;;1.10;0.90;;;6.30;79.00;;;;;;6295522;28;20216;-62
2023/04/02 04:41:45;;;;;;;0.93;0.93;;;6.20;79.90;;;;;;6272115;28;20221;-63
2023/04/02 04:44:51;;;;;;;0.77;0.77;;;6.20;79.70;;;;;;6256118;28;20204;-62
2023/04/02 04:48:25;;;;;;;0.80;0.80;;;6.20;79.10;;;;;;6293786;28;20262;-62
2023/04/02 04:51:55;;;;;;;1.77;1.10;;;6.30;79.20;;;;;;6277620;28;20186;-62
2023/04/02 04:54:55;;;;;;;1.43;0.80;;;6.30;79.00;;;;;;6271078;28;20273;-62
2023/04/02 04:58:21;;;;;;;2.33;1.00;;;6.30;79.20;;;;;;6255312;28;20216;-62
2023/04/02 05:01:36;;;;;;;0.97;0.90;;;6.30;78.90;;;;;;6267907;28;20186;-61
2023/04/02 05:04:40;;;;;;;1.07;0.80;;;6.40;79.20;;;;;;6275942;28;20183;-62
2023/04/02 05:07:50;;;;;;;0.80;0.80;;;6.40;79.10;;;;;;6278057;28;20298;-63
2023/04/02 05:10:58;;;;;;;1.50;0.90;;;6.40;78.90;;;;;;6292280;28;20194;-63
2023/04/02 05:14:12;;;;;;;0.93;0.80;;;6.40;79.00;;;;;;6276829;28;20186;-62
2023/04/02 05:17:20;;;;;;;1.10;1.00;;;6.50;79.00;;;;;;6284817;28;20305;-63
2023/04/02 05:20:35;;;;;;;2.37;1.10;;;6.60;78.50;;;;;;6280963;28;20194;-63
2023/04/02 05:24:15;;;;;;;0.87;0.87;;;6.60;78.60;;;;;;6269264;28;20277;-62
2023/04/02 05:27:19;;;;;;;2.67;0.90;;;6.70;78.20;;;;;;6272328;28;20190;-62
2023/04/02 05:30:22;;;;;;;1.23;0.97;;;6.60;78.30;;;;;;6276247;28;20235;-63
2023/04/02 05:33:32;;;;;;;0.60;0.60;;;6.70;78.30;;;;;;6275458;28;20245;-62
2023/04/02 05:36:33;;;;;;;1.03;0.80;;;6.80;78.70;;;;;;6275684;28;20214;-63
2023/04/02 05:39:34;;;;;;;1.77;0.90;;;6.90;77.80;;;;;;6292426;28;20220;-63
2023/04/02 05:42:37;;;;;;;2.30;0.90;;;6.90;77.80;;;;;;6267635;28;20192;-63
2023/04/02 05:45:40;;;;;;;4.27;1.10;;;7.00;77.70;;;;;;6263805;28;20194;-63
2023/04/02 05:48:43;;;;;;;1.30;1.03;;;7.00;78.10;;;;;;6275189;28;20231;-63
2023/04/02 05:51:48;;;;;;;2.13;1.30;;;7.00;77.50;;;;;;6272286;28;20178;-63
2023/04/02 05:55:01;;;;;;;1.73;1.00;;;7.00;77.60;;;;;;6283099;28;20187;-63
2023/04/02 05:58:11;;;;;;;1.00;0.90;;;7.00;77.00;;;;;;6305960;28;20232;-63
2023/04/02 06:01:28;;;;;;;1.17;1.03;;;7.00;77.80;;;;;;6275860;28;20190;-62
2023/04/02 06:04:35;;;;;;;1.00;0.80;;;7.20;77.20;;;;;;6262395;28;20178;-63
2023/04/02 06:07:57;;;;;;;2.20;0.87;;;7.30;77.10;;;;;;6262827;28;20194;-63
2023/04/02 06:11:01;;;;;;;3.37;1.20;;;7.40;77.20;;;;;;6273034;28;20232;-63
2023/04/02 06:14:03;;;;;;;2.27;1.60;;;7.50;77.00;;;;;;6275043;28;20198;-64
2023/04/02 06:17:04;;;;;;;1.93;1.53;;;7.50;76.50;;;;;;6273187;28;20231;-64
2023/04/02 06:20:05;;;;;;;3.03;1.53;;;7.60;75.90;;;;;;6258501;28;20194;-63
2023/04/02 06:23:31;;;;;;;2.33;1.77;;;7.80;76.00;;;;;;6263128;28;20190;-63
2023/04/02 06:26:38;;;;;;;3.00;1.57;;;7.80;76.00;;;;;;6273963;28;20178;-64
2023/04/02 06:29:43;;;;;;;2.90;1.50;;;7.80;75.00;;;;;;6274286;28;20186;-63
2023/04/02 06:32:43;;;;;;;2.77;1.60;;;8.00;75.60;;;;;;6288464;28;20244;-64
2023/04/02 06:35:46;;;;;;;3.80;1.80;;;8.00;74.70;;;;;;6280548;28;20203;-64
2023/04/02 06:38:48;;;;;;;2.30;1.90;;;8.10;73.10;;;;;;6272087;28;20197;-64
2023/04/02 06:42:04;;;;;;;2.73;1.50;;;8.10;72.70;;;;;;6273400;28;20189;-64
2023/04/02 06:45:12;;;;;;;2.37;2.07;;;8.20;72.20;;;;;;6271659;28;20186;-63
2023/04/02 06:48:18;;;;;;;2.23;1.87;;;8.30;72.70;;;;;;6273783;28;20228;-62
2023/04/02 06:51:23;;;;;;;2.13;1.90;;;8.50;72.40;;;;;;6266760;28;20186;-63
2023/04/02 06:54:23;;;;;;;2.17;1.97;;;8.60;71.50;;;;;;6271836;28;20189;-63
2023/04/02 06:57:24;;;;;;;1.77;1.67;;;8.60;71.20;;;;;;6255335;28;20213;-62
2023/04/02 07:00:42;;;;;;;2.47;1.60;;;8.80;71.10;;;;;;6261610;28;20182;-62
2023/04/02 07:03:42;;;;;;;3.00;1.60;;;8.90;70.10;;;;;;6285476;28;20193;-62
2023/04/02 07:06:43;;;;;;;1.80;1.70;;;9.00;70.30;;;;;;6287397;28;20178;-62
2023/04/02 07:09:44;;;;;;;2.47;2.10;;;9.10;69.80;;;;;;6244606;28;20201;-62
2023/04/02 07:12:46;;;;;;;2.30;1.70;;;9.20;68.70;;;;;;6258021;28;20224;-62
2023/04/02 07:15:50;;;;;;;1.50;1.40;;;9.30;68.40;;;;;;6287197;28;20288;-62
2023/04/02 07:18:52;;;;;;;1.87;1.30;;;9.40;67.90;;;;;;6266270;28;20228;-62
2023/04/02 07:21:53;;;;;;;3.37;1.23;;;9.50;67.20;;;;;;6240852;28;20192;-62
2023/04/02 07:24:53;;;;;;;3.90;1.40;;;9.50;66.90;;;;;;6256293;28;20181;-63
2023/04/02 07:27:55;;;;;;;1.43;1.13;;;9.60;66.10;;;;;;6254769;28;20194;-63
2023/04/02 07:30:55;;;;;;;2.20;1.50;;;9.60;66.30;;;;;;6287966;28;20189;-64
2023/04/02 07:33:58;;;;;;;2.67;1.23;;;9.60;67.10;;;;;;6272522;28;20225;-64
2023/04/02 07:37:01;;;;;;;1.90;1.37;;;9.70;65.90;;;;;;6265750;28;20198;-64
2023/04/02 07:40:03;;;;;;;3.07;1.30;;;9.80;66.10;;;;;;6270601;28;20189;-64
2023/04/02 07:43:05;;;;;;;2.67;1.87;;;9.90;66.60;;;;;;6258897;28;20213;-63
2023/04/02 07:46:07;;;;;;;1.70;1.50;;;10.00;66.20;;;;;;6253876;28;20236;-63
2023/04/02 07:49:08;;;;;;;2.73;1.77;;;10.10;64.20;;;;;;6253829;28;20201;-63
2023/04/02 07:52:08;;;;;;;3.40;1.57;;;10.00;65.40;;;;;;6280603;28;20680;-64
2023/04/02 07:55:11;;;;;;;2.37;1.80;;;10.10;65.30;;;;;;6240535;28;20201;-65
2023/04/02 07:58:12;;;;;;;3.77;1.30;;;10.30;65.50;;;;;;6259883;28;20229;-64
2023/04/02 08:01:24;;;;;;;2.70;1.53;;;10.50;64.80;;;;;;6262834;28;20253;-64
2023/04/02 08:04:25;;;;;;;4.20;1.80;;;10.60;65.10;;;;;;6283429;28;20185;-63
2023/04/02 08:07:27;;;;;;;2.63;1.70;;;10.60;64.60;;;;;;6248977;28;20244;-63
2023/04/02 08:10:27;;;;;;;2.67;1.70;;;10.70;64.10;;;;;;6231761;28;20194;-63
2023/04/02 08:13:28;;;;;;;2.07;1.67;;;10.80;63.80;;;;;;6237875;28;20186;-63
2023/04/02 08:16:47;;;;;;;2.83;1.70;;;10.90;63.70;;;;;;6266036;28;20209;-63
2023/04/02 08:19:48;;;;;;;3.53;1.90;;;11.00;62.90;;;;;;6286171;28;20190;-63
2023/04/02 08:22:49;;;;;;;4.93;2.13;;;11.00;64.00;;;;;;6269251;28;20221;-63
2023/04/02 08:25:50;;;;;;;2.77;1.70;;;11.00;63.50;;;;;;6270112;28;20190;-63
2023/04/02 08:28:51;;;;;;;1.87;1.50;;;11.10;63.50;;;;;;6271193;28;20193;-63
2023/04/02 08:31:52;;;;;;;4.27;1.50;;;11.30;63.30;;;;;;6246312;28;20233;-63
2023/04/02 08:34:52;;;;;;;2.60;1.50;;;11.40;62.50;;;;;;6270332;28;20185;-63
2023/04/02 08:37:53;;;;;;;4.40;1.77;;;11.50;61.30;;;;;;6248706;28;20220;-63
2023/04/02 08:40:56;;;;;;;2.20;1.80;;;11.50;61.50;;;;;;6237105;28;20189;-63
2023/04/02 08:44:15;;;;;;;2.73;1.80;;;11.60;60.00;;;;;;6251875;28;20197;-63
2023/04/02 08:47:20;;;;;;;3.23;1.77;;;11.70;60.10;;;;;;6279229;28;20187;-63
2023/04/02 08:50:33;;;;;;;1.47;1.30;;;11.70;59.90;;;;;;6288533;28;20187;-63
2023/04/02 08:53:37;;;;;;;3.07;1.60;;;11.70;59.70;;;;;;6269474;28;20183;-63
2023/04/02 08:56:50;;;;;;;3.20;2.03;;;11.80;60.40;;;;;;6275051;28;20287;-63
2023/04/02 09:00:17;;;;;;;2.53;1.80;;;11.90;60.30;;;;;;6269546;28;20225;-63
2023/04/02 09:03:26;;;;;;;1.77;1.37;;;11.90;59.60;;;;;;6269690;28;20194;-63
2023/04/02 09:06:28;;;;;;;1.87;1.10;;;11.90;59.00;;;;;;6270602;28;20209;-63
2023/04/02 09:09:34;;;;;;;1.40;1.30;;;12.00;58.00;;;;;;6250759;28;20204;-63
2023/04/02 09:12:35;;;;;;;1.43;1.10;;;12.20;58.70;;;;;;6286473;28;20179;-63
2023/04/02 09:15:36;;;;;;;1.83;1.10;;;12.20;56.60;;;;;;6260108;28;20344;-63
2023/04/02 09:18:38;;;;;;;1.20;0.90;;;12.40;54.80;;;;;;6235414;28;20287;-63
2023/04/02 09:22:05;;;;;;;1.97;1.20;;;12.50;52.50;;;;;;6256507;28;20186;-63
2023/04/02 09:25:14;;;;;;;2.43;0.93;;;12.80;52.20;;;;;;6283572;28;20183;-63
2023/04/02 09:28:15;;;;;;;1.40;1.10;;;12.70;54.10;;;;;;6283521;28;20187;-63
2023/04/02 09:31:23;;;;;;;2.50;1.73;;;12.90;54.80;;;;;;6257478;28;20189;-63
2023/04/02 09:34:33;;;;;;;1.50;1.00;;;13.00;53.40;;;;;;6270720;28;20198;-63
2023/04/02 09:37:33;;;;;;;1.63;1.13;;;13.00;52.60;;;;;;6272182;28;20199;-63
2023/04/02 09:40:45;;;;;;;3.17;1.50;;;13.30;51.50;;;;;;6247948;28;20210;-62
2023/04/02 09:43:46;;;;;;;2.73;1.20;;;13.50;50.60;;;;;;6270154;28;20187;-63
2023/04/02 09:46:49;;;;;;;1.53;1.43;;;13.50;49.80;;;;;;6253187;28;20220;-62
2023/04/02 09:49:50;;;;;;;3.30;1.60;;;13.70;53.10;;;;;;6290322;28;20331;-61
2023/04/02 09:52:51;;;;;;;1.97;1.50;;;13.70;54.40;;;;;;6258236;28;20198;-62
2023/04/02 09:56:17;;;;;;;2.20;1.30;;;13.90;53.10;;;;;;6258962;28;20193;-62
2023/04/02 09:59:21;;;;;;;0.70;0.70;;;13.90;52.20;;;;;;6274705;28;20232;-62
2023/04/02 10:02:25;;;;;;;1.20;1.10;;;14.10;49.60;;;;;;6256132;28;20194;-62
2023/04/02 10:05:26;;;;;;;1.53;1.40;;;14.20;48.30;;;;;;6286228;28;20249;-62
2023/04/02 10:08:35;;;;;;;1.87;1.30;;;14.20;49.90;;;;;;6255468;28;20190;-62
2023/04/02 10:11:35;;;;;;;1.17;1.00;;;14.10;49.90;;;;;;6254205;28;20191;-62
2023/04/02 10:14:42;;;;;;;2.57;1.00;;;14.10;48.40;;;;;;6241331;28;20200;-62
2023/04/02 10:17:45;;;;;;;1.47;0.90;;;14.30;47.90;;;;;;6278705;28;20222;-62
2023/04/02 10:20:47;;;;;;;0.97;0.80;;;14.50;47.20;;;;;;6285988;28;20170;-62
2023/04/02 10:23:48;;;;;;;1.50;1.23;;;14.40;46.70;;;;;;6247071;28;20194;-62
2023/04/02 10:27:33;;;;;;;0.70;0.70;;;14.10;46.80;;;;;;6290820;28;20190;-62
2023/04/02 10:31:06;;;;;;;1.10;0.90;;;14.30;48.10;;;;;;6227318;28;20248;-62
2023/04/02 10:34:18;;;;;;;1.00;0.90;;;14.50;46.60;;;;;;6264919;28;20311;-62
2023/04/02 10:37:43;;;;;;;0.70;0.70;;;14.70;48.00;;;;;;6273655;28;20216;-62
2023/04/02 10:41:09;;;;;;;1.07;0.80;;;14.90;47.00;;;;;;6274518;28;20178;-62
2023/04/02 10:44:21;;;;;;;1.57;0.90;;;15.10;47.10;;;;;;6260330;28;20190;-62
2023/04/02 10:47:27;;;;;;;1.10;1.00;;;15.20;45.90;;;;;;6272129;28;20328;-62
2023/04/02 10:50:45;;;;;;;2.00;0.80;;;15.40;47.30;;;;;;6262857;28;20191;-62
2023/04/02 10:54:12;;;;;;;1.80;1.00;;;15.40;45.20;;;;;;6291585;28;20238;-62
2023/04/02 10:57:24;;;;;;;1.27;1.00;;;15.40;45.50;;;;;;6236978;28;20241;-62
2023/04/02 11:00:29;;;;;;;0.90;0.80;;;15.60;44.90;;;;;;6275561;28;20170;-64
2023/04/02 11:03:40;;;;;;;0.80;0.80;;;15.80;44.20;;;;;;6289905;28;20178;-62
2023/04/02 11:06:45;;;;;;;1.20;0.77;;;15.90;44.80;;;;;;6272236;28;20190;-62
2023/04/02 11:09:49;;;;;;;1.60;0.90;;;16.00;44.20;;;;;;6273309;28;20190;-62
2023/04/02 11:13:21;;;;;;;1.03;0.93;;;16.30;44.70;;;;;;6272916;28;20209;-62
2023/04/02 11:16:22;;;;;;;1.20;0.50;;;16.10;44.10;;;;;;6268591;28;20268;-62
2023/04/02 11:19:29;;;;;;;2.13;0.50;;;16.00;41.60;;;;;;6272261;28;20246;-62
2023/04/02 11:22:30;;;;;;;0.30;0.30;;;16.00;41.10;;;;;;6269871;28;20218;-63
2023/04/02 11:25:31;;;;;;;0.30;0.30;;;15.60;41.00;;;;;;6273944;28;20182;-61
2023/04/02 11:28:32;;;;;;;1.50;0.33;;;15.80;42.10;;;;;;6247241;28;20200;-62
2023/04/02 11:31:33;;;;;;;0.37;0.30;;;15.80;42.20;;;;;;6273366;28;20190;-62
2023/04/02 11:34:40;;;;;;;0.30;0.20;;;15.80;42.10;;;;;;6266367;28;20187;-62
2023/04/02 11:37:43;;;;;;;1.67;0.27;;;16.00;42.50;;;;;;6267940;28;20209;-62
2023/04/02 11:40:58;;;;;;;0.80;0.30;;;16.20;42.40;;;;;;6283647;28;20194;-62
2023/04/02 11:43:59;;;;;;;0.47;0.43;;;16.50;42.10;;;;;;6271281;28;20277;-62
2023/04/02 11:47:19;;;;;;;0.50;0.23;;;;;;;;;;6288604;28;20185;-62
2023/04/02 11:50:31;;;;;;;0.77;0.33;;;;;;;;;;6256159;28;20234;-62
2023/04/02 11:53:35;;;;;;;0.43;0.43;;;;;;;;;;6258567;28;20220;-62
2023/04/02 11:56:42;;;;;;;0.70;0.30;;;;;;;;;;6273174;28;20212;-62
2023/04/02 11:59:47;;;;;;;0.10;0.10;;;;;;;;;;6284225;28;20196;-62
2023/04/02 12:03:06;;;;;;;0.50;0.50;;;;;;;;;;6272894;28;20181;-61
2023/04/02 12:06:20;;;;;;;1.13;0.30;;;;;;;;;;6276097;28;20201;-62
2023/04/02 12:09:23;;;;;;;0.30;0.30;;;;;;;;;;6289549;28;20197;-61
2023/04/02 12:12:24;;;;;;;1.10;0.40;;;;;;;;;;6266575;28;20215;-61
2023/04/02 12:15:25;;;;;;;1.90;0.37;;;;;;;;;;6288434;28;20186;-61
2023/04/02 12:18:27;;;;;;;0.77;0.43;;;;;;;;;;6272251;28;20213;-61
2023/04/02 12:21:28;;;;;;;0.10;0.10;;;;;;;;;;6255491;28;20244;-60
2023/04/02 12:24:30;;;;;;;0.20;0.20;;;;;;;;;;6265250;28;20190;-62
2023/04/02 12:27:31;;;;;;;0.30;0.30;;;;;;;;;;6267017;28;20215;-61
2023/04/02 12:30:32;;;;;;;0.30;0.30;;;;;;;;;;6267390;28;20264;-61
2023/04/02 12:33:36;;;;;;;0.23;0.23;;;;;;;;;;6285096;28;20277;-61
2023/04/02 12:36:37;;;;;;;0.23;0.23;;;16.70;42.20;;;;;;6264251;28;20209;-61
2023/04/02 12:39:38;;;;;;;0.20;0.20;;;;;;;;;;6254280;28;20189;-61
2023/04/02 12:42:38;;;;;;;1.03;0.40;;;17.60;37.80;;;;;;6267707;28;20224;-61
2023/04/02 12:45:39;;;;;;;0.20;0.20;;;17.40;36.90;;;;;;6250555;28;20186;-60
2023/04/02 12:48:40;;;;;;;0.20;0.20;;;17.20;37.70;;;;;;6250975;28;20197;-61
2023/04/02 12:51:41;;;;;;;0.50;0.40;;;17.10;38.30;;;;;;6266720;28;20199;-61
2023/04/02 12:55:00;;;;;;;0.30;0.27;;;17.00;38.30;;;;;;6254186;28;20277;-61
2023/04/02 12:58:01;;;;;;;1.07;0.50;;;;;;;;;;6277054;28;20235;-61
2023/04/02 13:01:12;;;;;;;1.00;0.60;;;17.40;38.20;;;;;;6274870;28;20679;-61
2023/04/02 13:04:14;;;;;;;0.20;0.20;;;;;;;;;;6272875;28;20190;-62
2023/04/02 13:07:16;;;;;;;0.20;0.20;;;;;;;;;;6260198;28;20200;-62
2023/04/02 13:10:25;;;;;;;0.43;0.20;;;;;;;;;;6288656;28;20194;-61
2023/04/02 13:13:33;;;;;;;0.20;0.20;;;;;;;;;;6291026;28;20186;-61
2023/04/02 13:16:37;;;;;;;0.30;0.30;;;;;;;;;;6292121;28;20225;-61
2023/04/02 13:19:38;;;;;;;1.27;0.20;;;;;;;;;;6275734;28;20196;-61
2023/04/02 13:22:39;;;;;;;0.10;0.10;;;;;;;;;;6259749;28;20255;-62
2023/04/02 13:25:40;;;;;;;0.20;0.20;;;;;;;;;;6260232;28;20186;-61
2023/04/02 13:28:41;;;;;;;0.20;0.20;;;;;;;;;;6284619;28;20271;-61
2023/04/02 13:31:42;;;;;;;1.23;0.20;;;;;;;;;;6292773;28;20391;-61
2023/04/02 13:34:44;;;;;;;0.30;0.30;;;;;;;;;;6288445;28;20308;-60
2023/04/02 13:37:45;;;;;;;0.47;0.43;;;;;;;;;;6293017;28;20274;-62
2023/04/02 13:40:46;;;;;;;1.17;0.50;;;;;;;;;;6265427;28;20185;-62
2023/04/02 13:43:48;;;;;;;0.60;0.30;;;;;;;;;;6275224;28;20189;-62
2023/04/02 13:46:49;;;;;;;0.30;0.30;;;;;;;;;;6271238;28;20204;-62
2023/04/02 13:49:50;;;;;;;0.30;0.30;;;;;;;;;;6284040;28;20190;-61
2023/04/02 13:52:52;;;;;;;0.20;0.20;;;;;;;;;;6256173;28;20190;-61
2023/04/02 13:55:53;;;;;;;0.27;0.27;;;;;;;;;;6258466;28;20224;-61
2023/04/02 13:58:54;;;;;;;0.40;0.40;;;;;;;;;;6274393;28;20181;-61
2023/04/02 14:01:57;;;;;;;0.17;0.17;;;;;;;;;;6283430;28;20216;-61
2023/04/02 14:05:08;;;;;;;0.30;0.20;;;;;;;;;;6263569;28;20190;-61
2023/04/02 14:08:17;;;;;;;0.10;0.10;;;;;;;;;;6275116;28;20193;-61
2023/04/02 14:11:37;;;;;;;0.20;0.20;;;;;;;;;;6271769;28;20243;-61
2023/04/02 14:15:28;;;;;;;0.37;0.20;;;18.40;37.40;;;;;;6287457;28;20226;-62
2023/04/02 14:18:48;;;;;;;0.43;0.20;;;;;;;;;;6277309;28;20229;-61
2023/04/02 14:22:14;;;;;;;0.27;0.20;;;20.00;35.70;;;;;;6270188;28;20195;-61
2023/04/02 14:25:15;;;;;;;0.70;0.30;;;;;;;;;;6279681;28;20194;-59
2023/04/02 14:28:36;;;;;;;0.40;0.20;;;23.30;32.50;;;;;;6286435;28;20280;-60
2023/04/02 14:31:49;;;;;;;0.83;0.30;;;25.20;30.80;;;;;;6272595;28;20240;-59
2023/04/02 14:34:57;;;;;;;0.50;0.50;;;26.20;29.00;;;;;;6261734;28;20201;-58
2023/04/02 14:38:04;;;;;;;0.30;0.30;;;26.40;28.30;;;;;;6279054;28;20217;-58
2023/04/02 14:41:25;;;;;;;0.60;0.30;;;;;;;;;;6289159;28;20193;-59
2023/04/02 14:44:28;;;;;;;0.20;0.20;;;;;;;;;;6271556;28;20198;-59
2023/04/02 14:47:42;;;;;;;0.10;0.10;;;;;;;;;;6291167;28;20186;-59
2023/04/02 14:50:43;;;;;;;0.30;0.30;;;;;;;;;;6277251;28;20190;-59
2023/04/02 14:53:48;;;;;;;0.37;0.20;;;;;;;;;;6266481;28;20239;-60
2023/04/02 14:56:51;;;;;;;0.20;0.20;;;;;;;;;;6270479;28;20233;-59
2023/04/02 15:00:00;;;;;;;1.30;0.50;;;;;;;;;;6278514;28;20210;-59
2023/04/02 15:03:09;;;;;;;0.17;0.17;;;;;;;;;;6299527;28;20235;-59
2023/04/02 15:06:13;;;;;;;0.20;0.20;;;;;;;;;;6286610;28;20190;-59
2023/04/02 15:09:34;;;;;;;0.30;0.30;;;;;;;;;;6293773;28;20269;-60
2023/04/02 15:12:38;;;;;;;0.10;0.10;;;;;;;;;;6271677;28;20209;-59
2023/04/02 15:15:56;;;;;;;0.10;0.10;;;;;;;;;;6300774;28;20314;-59
2023/04/02 15:18:58;;;;;;;0.20;0.20;;;;;;;;;;6266989;28;20281;-59
2023/04/02 15:22:15;;;;;;;0.60;0.60;;;;;;;;;;6273631;28;20735;-60
2023/04/02 15:25:19;;;;;;;0.33;0.33;;;;;;;;;;6290578;28;20186;-60
2023/04/02 15:28:25;;;;;;;0.30;0.30;;;;;;;;;;6268153;28;20713;-60
2023/04/02 15:31:27;;;;;;;0.20;0.20;;;;;;;;;;6272614;28;20192;-60
2023/04/02 15:34:40;;;;;;;0.43;0.27;;;;;;;;;;6261209;28;20779;-60
2023/04/02 15:38:05;;;;;;;0.20;0.20;;;;;;;;;;6284873;28;20741;-61
2023/04/02 15:41:06;;;;;;;0.30;0.30;;;;;;;;;;6265379;28;20244;-59
2023/04/02 15:44:15;;;;;;;0.10;0.10;;;;;;;;;;6268331;28;20200;-60
2023/04/02 15:47:34;;;;;;;0.20;0.20;;;;;;;;;;6271583;28;20236;-59
2023/04/02 15:50:43;;;;;;;0.10;0.10;;;;;;;;;;6270037;28;20273;-57
2023/04/02 15:53:53;;;;;;;0.30;0.30;;;;;;;;;;6289652;28;20185;-59
2023/04/02 15:57:00;;;;;;;0.87;0.60;;;;;;;;;;6264903;28;20210;-58
2023/04/02 16:00:04;;;;;;;0.20;0.20;;;;;;;;;;6268098;28;20203;-58
2023/04/02 16:03:24;;;;;;;0.20;0.20;;;;;;;;;;6273090;28;20186;-59
2023/04/02 16:06:25;;;;;;;0.70;0.10;;;;;;;;;;6288754;28;20277;-59
2023/04/02 16:09:29;;;;;;;0.20;0.20;;;;;;;;;;6272423;28;20186;-59
2023/04/02 16:12:31;;;;;;;0.20;0.20;;;;;;;;;;6273082;28;20194;-59
2023/04/02 16:15:42;;;;;;;0.10;0.10;;;;;;;;;;6288616;28;20198;-59
2023/04/02 16:18:43;;;;;;;0.20;0.20;;;;;;;;;;6271868;28;20226;-60
2023/04/02 16:21:53;;;;;;;0.10;0.10;;;;;;;;;;6255364;28;20198;-59
2023/04/02 16:25:04;;;;;;;0.20;0.20;;;;;;;;;;6287711;28;20194;-60
2023/04/02 16:28:05;;;;;;;0.20;0.20;;;;;;;;;;6271299;28;20201;-59
2023/04/02 16:31:06;;;;;;;0.20;0.20;;;;;;;;;;6255270;28;20216;-59
2023/04/02 16:34:11;;;;;;;0.40;0.40;;;;;;;;;;6268364;28;20240;-58
2023/04/02 16:37:18;;;;;;;0.20;0.20;;;;;;;;;;6276772;28;20213;-59
2023/04/02 16:40:19;;;;;;;0.30;0.30;;;;;;;;;;6293679;28;20196;-61
2023/04/02 16:43:37;;;;;;;0.20;0.20;;;;;;;;;;6277125;28;20194;-59
2023/04/02 16:46:57;;;;;;;0.17;0.17;;;;;;;;;;6270276;28;20201;-60
2023/04/02 16:50:07;;;;;;;0.27;0.27;;;;;;;;;;6274883;28;20206;-58
2023/04/02 16:53:20;;;;;;;0.40;0.40;;;;;;;;;;6287681;28;20225;-59
2023/04/02 16:56:33;;;;;;;0.50;0.50;;;;;;;;;;6268341;28;20210;-58
2023/04/02 16:59:41;;;;;;;0.70;0.70;;;;;;;;;;6277204;28;20321;-60
2023/04/02 17:02:51;;;;;;;0.60;0.60;;;;;;;;;;6290088;28;20285;-59
2023/04/02 17:06:04;;;;;;;0.33;0.27;;;;;;;;;;6267828;28;20187;-58
2023/04/02 17:09:16;;;;;;;0.40;0.40;;;;;;;;;;6290266;28;20214;-59
2023/04/02 17:12:22;;;;;;;0.30;0.30;;;;;;;;;;6289811;28;20194;-61